createdAt,value
2024-01-06T00:02:09.473Z,16.50
2024-01-06T00:04:36.117Z,19.33
2024-01-06T00:07:02.739Z,16.33
2024-01-06T00:09:29.413Z,19.77
2024-01-06T00:11:56.075Z,19.07
2024-01-06T00:14:22.623Z,19.10
2024-01-06T00:16:49.237Z,18.37
2024-01-06T00:19:15.887Z,20.37
2024-01-06T00:21:42.737Z,19.07
2024-01-06T00:24:09.419Z,21.07
2024-01-06T00:26:36.142Z,19.30
2024-01-06T00:29:02.779Z,18.33
2024-01-06T00:31:29.475Z,18.43
2024-01-06T00:33:56.277Z,21.07
2024-01-06T00:36:22.934Z,17.70
2024-01-06T00:38:49.554Z,22.60
2024-01-06T00:41:16.433Z,24.97
2024-01-06T00:43:43.489Z,25.83
2024-01-06T00:46:10.113Z,23.77
2024-01-06T00:48:36.851Z,23.97
2024-01-06T00:51:03.961Z,22.50
2024-01-06T00:53:30.849Z,24.97
2024-01-06T00:55:57.474Z,25.23
2024-01-06T00:58:24.123Z,26.80
2024-01-06T01:00:51.088Z,25.93
2024-01-06T01:03:17.893Z,26.20
2024-01-06T01:05:44.735Z,25.30
2024-01-06T01:08:11.451Z,29.60
2024-01-06T01:10:38.033Z,29.50
2024-01-06T01:13:04.811Z,30.33
2024-01-06T01:15:31.581Z,28.80
2024-01-06T01:17:58.345Z,33.97
2024-01-06T01:20:25.084Z,36.13
2024-01-06T01:22:51.869Z,29.97
2024-01-06T01:25:18.472Z,29.43
2024-01-06T01:27:45.081Z,29.27
2024-01-06T01:30:12.031Z,28.63
2024-01-06T01:32:38.841Z,32.67
2024-01-06T01:35:05.738Z,32.53
2024-01-06T01:37:35.338Z,31.00
2024-01-06T01:40:07.959Z,33.07
2024-01-06T01:42:35.168Z,33.87
2024-01-06T01:45:02.115Z,34.70
2024-01-06T01:47:29.122Z,35.20
2024-01-06T01:49:56.932Z,39.33
2024-01-06T01:52:24.133Z,36.73
2024-01-06T01:54:53.270Z,34.50
2024-01-06T01:57:22.498Z,39.17
2024-01-06T01:59:50.097Z,40.80
2024-01-06T02:02:17.355Z,37.53
2024-01-06T02:04:46.355Z,37.60
2024-01-06T02:07:13.326Z,37.97
2024-01-06T02:09:40.681Z,36.93
2024-01-06T02:12:07.838Z,34.73
2024-01-06T02:14:34.937Z,40.77
2024-01-06T02:17:01.910Z,37.03
2024-01-06T02:19:35.768Z,38.97
2024-01-06T02:22:03.091Z,38.60
2024-01-06T02:24:29.936Z,36.00
2024-01-06T02:26:56.784Z,38.17
2024-01-06T02:29:23.823Z,36.77
2024-01-06T02:31:50.977Z,40.93
2024-01-06T02:34:18.208Z,36.87
2024-01-06T02:36:45.108Z,38.53
2024-01-06T02:39:12.043Z,41.53
2024-01-06T02:41:39.306Z,36.13
2024-01-06T02:44:06.557Z,36.73
2024-01-06T02:46:33.532Z,36.37
2024-01-06T02:49:00.677Z,35.93
2024-01-06T02:51:27.737Z,38.70
2024-01-06T02:53:54.536Z,34.67
2024-01-06T02:56:21.233Z,37.20
2024-01-06T02:58:47.815Z,39.70
2024-01-06T03:01:14.552Z,44.97
2024-01-06T03:03:41.308Z,36.27
2024-01-06T03:06:08.028Z,41.43
2024-01-06T03:08:35.871Z,40.20
2024-01-06T03:11:04.921Z,40.10
2024-01-06T03:13:31.600Z,35.20
2024-01-06T03:15:58.420Z,39.10
2024-01-06T03:18:25.284Z,37.87
2024-01-06T03:20:51.997Z,36.93
2024-01-06T03:23:18.636Z,43.07
2024-01-06T03:25:45.302Z,41.33
2024-01-06T03:28:11.968Z,39.60
2024-01-06T03:30:38.736Z,44.83
2024-01-06T03:33:05.537Z,38.43
2024-01-06T03:35:32.139Z,41.27
2024-01-06T03:37:58.844Z,43.77
2024-01-06T03:40:25.559Z,36.70
2024-01-06T03:42:52.156Z,48.93
2024-01-06T03:45:18.797Z,42.03
2024-01-06T03:47:45.434Z,38.70
2024-01-06T03:50:12.114Z,43.47
2024-01-06T03:52:38.653Z,43.27
2024-01-06T03:55:06.410Z,38.40
2024-01-06T03:57:33.018Z,40.80
2024-01-06T03:59:59.718Z,44.37
2024-01-06T04:02:26.382Z,43.30
2024-01-06T04:04:52.995Z,49.40
2024-01-06T04:07:19.634Z,44.70
2024-01-06T04:09:46.334Z,47.77
2024-01-06T04:12:13.047Z,41.03
2024-01-06T04:14:39.767Z,40.93
2024-01-06T04:17:06.361Z,41.73
2024-01-06T04:19:33.071Z,41.13
2024-01-06T04:22:00.940Z,38.00
2024-01-06T04:24:27.562Z,40.47
2024-01-06T04:26:54.210Z,42.47
2024-01-06T04:29:20.778Z,39.27
2024-01-06T04:31:47.427Z,40.83
2024-01-06T04:34:14.169Z,45.90
2024-01-06T04:36:41.114Z,38.60
2024-01-06T04:39:07.793Z,45.07
2024-01-06T04:41:34.446Z,50.40
2024-01-06T04:44:01.107Z,57.47
2024-01-06T04:46:27.712Z,43.97
2024-01-06T04:48:54.405Z,48.40
2024-01-06T04:51:21.140Z,43.43
2024-01-06T04:53:48.236Z,57.03
2024-01-06T04:56:14.858Z,49.17
2024-01-06T04:58:41.714Z,58.60
2024-01-06T05:01:09.334Z,47.57
2024-01-06T05:03:36.151Z,46.30
2024-01-06T05:06:03.041Z,45.43
2024-01-06T05:08:31.974Z,45.73
2024-01-06T05:10:58.652Z,41.13
2024-01-06T05:13:25.205Z,55.63
2024-01-06T05:15:51.831Z,45.87
2024-01-06T05:18:18.619Z,43.30
2024-01-06T05:20:45.352Z,51.93
2024-01-06T05:23:11.986Z,66.30
2024-01-06T05:25:38.943Z,42.33
2024-01-06T05:28:05.581Z,60.67
2024-01-06T05:30:32.318Z,47.70
2024-01-06T05:32:59.062Z,64.67
2024-01-06T05:35:25.721Z,102.97
2024-01-06T05:37:52.313Z,45.13
2024-01-06T05:40:18.898Z,55.33
2024-01-06T05:42:45.544Z,48.23
2024-01-06T05:45:13.937Z,54.13
2024-01-06T05:47:40.910Z,54.83
2024-01-06T05:50:10.460Z,47.87
2024-01-06T05:52:37.024Z,47.90
2024-01-06T05:55:03.882Z,53.00
2024-01-06T05:57:31.057Z,49.20
2024-01-06T05:59:57.889Z,52.33
2024-01-06T06:02:24.485Z,61.83
2024-01-06T06:04:51.155Z,85.67
2024-01-06T06:07:17.796Z,50.37
2024-01-06T06:09:44.727Z,50.33
2024-01-06T06:12:11.442Z,59.33
2024-01-06T06:14:38.029Z,50.40
2024-01-06T06:17:04.801Z,57.80
2024-01-06T06:19:32.287Z,52.10
2024-01-06T06:21:59.358Z,57.70
2024-01-06T06:24:26.005Z,62.73
2024-01-06T06:26:52.935Z,60.63
2024-01-06T06:29:21.951Z,47.93
2024-01-06T06:31:49.976Z,55.63
2024-01-06T06:34:17.035Z,53.93
2024-01-06T06:36:43.911Z,53.23
2024-01-06T06:39:10.607Z,52.27
2024-01-06T06:41:37.275Z,57.17
2024-01-06T06:44:03.895Z,53.57
2024-01-06T06:46:30.485Z,47.37
2024-01-06T06:48:57.149Z,54.17
2024-01-06T06:51:26.516Z,53.10
2024-01-06T06:53:53.414Z,54.00
2024-01-06T06:56:20.114Z,55.97
2024-01-06T06:58:46.718Z,49.77
2024-01-06T07:01:15.072Z,50.33
2024-01-06T07:03:41.775Z,50.57
2024-01-06T07:06:08.477Z,55.77
2024-01-06T07:08:35.053Z,50.47
2024-01-06T07:11:01.659Z,57.00
2024-01-06T07:13:28.270Z,53.13
2024-01-06T07:16:00.821Z,56.13
2024-01-06T07:18:34.815Z,55.50
2024-01-06T07:21:01.639Z,58.40
2024-01-06T07:23:28.290Z,57.87
2024-01-06T07:25:56.488Z,58.70
2024-01-06T07:28:23.037Z,53.43
2024-01-06T07:30:49.731Z,52.43
2024-01-06T07:33:16.420Z,57.63
2024-01-06T07:35:44.821Z,55.53
2024-01-06T07:38:11.580Z,52.13
2024-01-06T07:40:38.468Z,57.53
2024-01-06T07:43:05.609Z,56.80
2024-01-06T07:45:32.893Z,51.53
2024-01-06T07:48:00.122Z,75.10
2024-01-06T07:50:27.280Z,71.33
2024-01-06T07:52:54.167Z,80.30
2024-01-06T07:55:21.170Z,60.23
2024-01-06T07:57:47.845Z,60.17
2024-01-06T08:00:17.624Z,56.00
2024-01-06T08:02:45.814Z,59.30
2024-01-06T08:05:12.568Z,61.67
2024-01-06T08:07:39.146Z,61.43
2024-01-06T08:10:06.374Z,60.60
2024-01-06T08:12:33.166Z,69.07
2024-01-06T08:14:59.808Z,62.33
2024-01-06T08:17:26.436Z,63.63
2024-01-06T08:19:54.183Z,58.90
2024-01-06T08:22:20.778Z,59.77
2024-01-06T08:24:48.405Z,58.30
2024-01-06T08:27:15.089Z,60.87
2024-01-06T08:29:41.782Z,56.03
2024-01-06T08:32:08.487Z,61.63
2024-01-06T08:34:35.196Z,62.47
2024-01-06T08:37:01.879Z,62.37
2024-01-06T08:39:28.552Z,60.53
2024-01-06T08:41:56.812Z,62.10
2024-01-06T08:44:24.507Z,56.43
2024-01-06T08:46:51.412Z,57.87
2024-01-06T08:49:18.506Z,68.83
2024-01-06T08:51:45.404Z,66.57
2024-01-06T08:54:12.072Z,59.03
2024-01-06T08:56:39.490Z,68.23
2024-01-06T08:59:06.535Z,63.10
2024-01-06T09:01:34.011Z,63.07
2024-01-06T09:04:00.701Z,63.77
2024-01-06T09:06:27.397Z,62.37
2024-01-06T09:08:54.015Z,61.47
2024-01-06T09:11:20.613Z,70.30
2024-01-06T09:13:47.213Z,59.97
2024-01-06T09:16:13.921Z,61.97
2024-01-06T09:18:41.098Z,85.87
2024-01-06T09:21:08.274Z,60.07
2024-01-06T09:23:34.961Z,62.93
2024-01-06T09:26:01.622Z,58.33
2024-01-06T09:28:29.030Z,61.73
2024-01-06T09:30:57.223Z,63.03
2024-01-06T09:33:24.278Z,61.40
2024-01-06T09:35:51.972Z,57.13
2024-01-06T09:38:19.232Z,62.73
2024-01-06T09:40:46.828Z,57.20
2024-01-06T09:43:13.395Z,62.03
2024-01-06T09:45:40.738Z,56.63
2024-01-06T09:48:18.191Z,57.10
2024-01-06T09:50:48.002Z,62.90
2024-01-06T09:53:15.228Z,66.70
2024-01-06T09:55:42.038Z,59.87
2024-01-06T09:58:09.806Z,55.90
2024-01-06T10:00:36.576Z,54.33
2024-01-06T10:03:03.279Z,58.37
2024-01-06T10:05:30.058Z,66.30
2024-01-06T10:07:56.762Z,60.77
2024-01-06T10:10:23.685Z,60.10
2024-01-06T10:12:53.765Z,61.80
2024-01-06T10:15:20.925Z,59.63
2024-01-06T10:17:47.743Z,63.10
2024-01-06T10:20:16.294Z,58.47
2024-01-06T10:22:43.302Z,60.50
2024-01-06T10:25:12.463Z,52.47
2024-01-06T10:27:39.721Z,55.43
2024-01-06T10:30:10.177Z,60.17
2024-01-06T10:32:40.001Z,59.67
2024-01-06T10:35:08.150Z,62.30
2024-01-06T10:37:34.929Z,63.20
2024-01-06T10:40:11.425Z,59.03
2024-01-06T10:42:40.748Z,70.87
2024-01-06T10:45:09.202Z,61.50
2024-01-06T10:47:39.423Z,54.33
2024-01-06T10:50:06.602Z,52.10
2024-01-06T10:52:33.459Z,58.23
2024-01-06T10:55:00.318Z,53.10
2024-01-06T10:57:29.218Z,52.40
2024-01-06T10:59:56.933Z,52.40
2024-01-06T11:02:26.287Z,51.00
2024-01-06T11:04:53.105Z,53.17
2024-01-06T11:07:21.184Z,59.43
2024-01-06T11:09:59.651Z,49.77
2024-01-06T11:12:29.331Z,53.03
2024-01-06T11:14:56.015Z,53.87
2024-01-06T11:17:55.466Z,53.50
2024-01-06T11:20:31.388Z,58.53
2024-01-06T11:23:17.917Z,52.27
2024-01-06T11:25:44.565Z,53.57
2024-01-06T11:28:13.556Z,52.97
2024-01-06T11:30:41.565Z,52.13
2024-01-06T11:33:09.565Z,51.77
2024-01-06T11:35:38.317Z,49.73
2024-01-06T11:38:05.339Z,50.17
2024-01-06T11:40:33.630Z,53.97
2024-01-06T11:43:02.039Z,48.40
2024-01-06T11:45:28.892Z,45.97
2024-01-06T11:47:56.434Z,50.07
2024-01-06T11:50:23.023Z,50.63
2024-01-06T11:52:49.697Z,52.83
2024-01-06T11:55:18.591Z,53.17
2024-01-06T11:57:45.372Z,62.67
2024-01-06T12:00:13.071Z,56.63
2024-01-06T12:02:39.805Z,52.60
2024-01-06T12:05:06.649Z,60.83
2024-01-06T12:07:35.969Z,54.73
2024-01-06T12:10:03.711Z,62.50
2024-01-06T12:12:30.405Z,57.40
2024-01-06T12:14:56.979Z,59.23
2024-01-06T12:17:23.835Z,57.63
2024-01-06T12:19:50.459Z,57.87
2024-01-06T12:22:17.654Z,51.90
2024-01-06T12:24:44.417Z,63.50
2024-01-06T12:27:11.521Z,58.90
2024-01-06T12:29:44.541Z,65.10
2024-01-06T12:32:11.725Z,57.73
2024-01-06T12:34:38.539Z,57.57
2024-01-06T12:37:05.410Z,67.27
2024-01-06T12:39:32.244Z,59.57
2024-01-06T12:42:01.438Z,60.90
2024-01-06T12:44:28.819Z,63.97
2024-01-06T12:46:55.580Z,80.43
2024-01-06T12:49:22.217Z,61.47
2024-01-06T12:51:48.899Z,68.20
2024-01-06T12:54:15.515Z,64.53
2024-01-06T12:56:42.217Z,63.57
2024-01-06T12:59:09.634Z,54.37
2024-01-06T13:01:36.574Z,57.53
2024-01-06T13:04:03.616Z,66.13
2024-01-06T13:06:31.451Z,60.80
2024-01-06T13:08:58.168Z,61.77
2024-01-06T13:11:25.492Z,62.47
2024-01-06T13:13:52.555Z,72.60
2024-01-06T13:16:19.273Z,61.87
2024-01-06T13:18:46.225Z,68.53
2024-01-06T13:21:12.949Z,71.63
2024-01-06T13:23:39.534Z,66.20
2024-01-06T13:26:06.174Z,74.70
2024-01-06T13:28:32.780Z,66.10
2024-01-06T13:30:59.562Z,56.07
2024-01-06T13:33:26.476Z,62.57
2024-01-06T13:35:53.266Z,64.50
2024-01-06T13:38:19.852Z,63.03
2024-01-06T13:40:46.474Z,77.93
2024-01-06T13:43:16.796Z,63.23
2024-01-06T13:45:44.710Z,61.57
2024-01-06T13:48:11.637Z,65.13
2024-01-06T13:50:38.348Z,70.33
2024-01-06T13:53:05.135Z,81.13
2024-01-06T13:55:31.683Z,67.23
2024-01-06T13:57:58.325Z,72.93
2024-01-06T14:00:25.661Z,66.87
2024-01-06T14:02:52.293Z,69.97
2024-01-06T14:05:20.686Z,63.73
2024-01-06T14:07:50.101Z,59.33
2024-01-06T14:10:17.146Z,60.90
2024-01-06T14:12:43.830Z,64.37
2024-01-06T14:15:10.631Z,63.17
2024-01-06T14:17:37.304Z,58.40
2024-01-06T14:20:04.364Z,62.13
2024-01-06T14:22:31.016Z,59.00
2024-01-06T14:24:57.673Z,63.17
2024-01-06T14:27:24.577Z,69.60
2024-01-06T14:29:51.254Z,68.30
2024-01-06T14:32:18.146Z,60.13
2024-01-06T14:34:44.841Z,60.60
2024-01-06T14:37:11.423Z,57.20
2024-01-06T14:39:38.408Z,57.83
2024-01-06T14:42:05.196Z,57.83
2024-01-06T14:44:31.987Z,63.73
2024-01-06T14:46:58.585Z,60.70
2024-01-06T14:49:25.354Z,69.97
2024-01-06T14:51:52.182Z,64.17
2024-01-06T14:54:18.943Z,63.30
2024-01-06T14:56:45.600Z,64.37
2024-01-06T14:59:12.187Z,59.53
2024-01-06T15:01:39.157Z,62.03
2024-01-06T15:04:06.038Z,67.90
2024-01-06T15:06:32.770Z,56.27
2024-01-06T15:08:59.379Z,64.23
2024-01-06T15:11:25.993Z,62.40
2024-01-06T15:13:52.866Z,60.47
2024-01-06T15:16:19.437Z,59.00
2024-01-06T15:18:46.219Z,58.73
2024-01-06T15:21:13.689Z,61.17
2024-01-06T15:23:40.257Z,76.17
2024-01-06T15:26:06.835Z,64.10
2024-01-06T15:28:34.101Z,53.53
2024-01-06T15:31:01.456Z,55.07
2024-01-06T15:33:28.500Z,58.53
2024-01-06T15:35:55.208Z,65.37
2024-01-06T15:38:21.772Z,61.27
2024-01-06T15:40:49.051Z,62.03
2024-01-06T15:43:15.754Z,67.63
2024-01-06T15:45:42.766Z,69.53
2024-01-06T15:48:10.756Z,65.23
2024-01-06T15:50:37.781Z,66.77
2024-01-06T15:53:05.171Z,75.73
2024-01-06T15:55:31.894Z,64.40
2024-01-06T15:57:58.578Z,80.43
2024-01-06T16:00:25.544Z,57.03
2024-01-06T16:02:52.885Z,56.90
2024-01-06T16:05:19.606Z,56.87
2024-01-06T16:07:46.220Z,88.97
2024-01-06T16:10:12.775Z,63.03
2024-01-06T16:12:45.085Z,57.47
2024-01-06T16:15:11.780Z,70.67
2024-01-06T16:17:38.576Z,53.00
2024-01-06T16:20:07.423Z,56.43
2024-01-06T16:22:34.537Z,60.07
2024-01-06T16:25:01.319Z,58.70
2024-01-06T16:27:27.982Z,63.23
2024-01-06T16:29:54.558Z,59.67
2024-01-06T16:32:22.468Z,61.17
2024-01-06T16:34:49.397Z,69.93
2024-01-06T16:37:18.097Z,59.73
2024-01-06T16:39:44.775Z,58.13
2024-01-06T16:42:11.472Z,61.90
2024-01-06T16:44:38.068Z,61.10
2024-01-06T16:47:04.831Z,61.53
2024-01-06T16:49:33.588Z,62.13
2024-01-06T16:52:00.618Z,71.90
2024-01-06T16:54:27.558Z,63.73
2024-01-06T16:56:54.193Z,72.40
2024-01-06T16:59:20.841Z,68.57
2024-01-06T17:01:47.574Z,78.80
2024-01-06T17:04:14.540Z,61.20
2024-01-06T17:06:41.267Z,76.93
2024-01-06T17:09:07.875Z,72.43
2024-01-06T17:11:34.472Z,65.13
2024-01-06T17:14:02.117Z,117.63
2024-01-06T17:16:28.672Z,113.30
2024-01-06T17:18:55.787Z,105.80
2024-01-06T17:21:22.650Z,103.73
2024-01-06T17:23:51.964Z,72.27
2024-01-06T17:26:18.638Z,74.30
2024-01-06T17:28:45.338Z,84.73
2024-01-06T17:31:11.988Z,66.47
2024-01-06T17:33:38.843Z,78.30
2024-01-06T17:36:05.776Z,53.03
2024-01-06T17:38:32.444Z,61.17
2024-01-06T17:40:58.986Z,56.90
2024-01-06T17:43:25.547Z,50.70
2024-01-06T17:45:52.211Z,53.07
2024-01-06T17:48:19.189Z,95.43
2024-01-06T17:50:46.669Z,54.53
2024-01-06T17:53:13.238Z,54.00
2024-01-06T17:55:39.929Z,63.47
2024-01-06T17:58:06.585Z,48.27
2024-01-06T18:00:33.821Z,54.00
2024-01-06T18:03:00.512Z,85.73
2024-01-06T18:05:27.409Z,116.77
2024-01-06T18:07:54.938Z,98.03
2024-01-06T18:10:21.661Z,62.23
2024-01-06T18:12:48.318Z,91.90
2024-01-06T18:15:14.936Z,47.53
2024-01-06T18:17:41.822Z,48.03
2024-01-06T18:20:09.504Z,40.63
2024-01-06T18:22:36.108Z,45.17
2024-01-06T18:25:02.741Z,42.13
2024-01-06T18:27:30.413Z,37.87
2024-01-06T18:29:57.637Z,35.90
2024-01-06T18:32:24.404Z,34.63
2024-01-06T18:34:51.064Z,38.77
2024-01-06T18:37:17.753Z,37.53
2024-01-06T18:39:45.122Z,38.43
2024-01-06T18:42:14.807Z,35.63
2024-01-06T18:44:41.780Z,39.23
2024-01-06T18:47:12.042Z,45.80
2024-01-06T18:49:38.829Z,79.37
2024-01-06T18:52:05.647Z,48.63
2024-01-06T18:54:38.406Z,36.97
2024-01-06T18:57:08.793Z,41.67
2024-01-06T18:59:35.399Z,37.37
2024-01-06T19:02:02.123Z,36.07
2024-01-06T19:04:28.754Z,39.72
2024-01-06T19:06:55.510Z,32.80
2024-01-06T19:09:22.206Z,37.90
2024-01-06T19:11:49.205Z,39.60
2024-01-06T19:14:15.875Z,40.90
2024-01-06T19:16:44.550Z,44.73
2024-01-06T19:19:11.329Z,45.60
2024-01-06T19:21:38.009Z,38.47
2024-01-06T19:24:04.894Z,37.90
2024-01-06T19:26:31.793Z,40.87
2024-01-06T19:28:58.728Z,38.77
2024-01-06T19:31:25.613Z,37.47
2024-01-06T19:33:54.730Z,30.97
2024-01-06T19:36:21.768Z,36.67
2024-01-06T19:38:48.919Z,39.40
2024-01-06T19:41:15.512Z,34.43
2024-01-06T19:43:42.155Z,30.70
2024-01-06T19:46:10.915Z,29.20
2024-01-06T19:48:38.700Z,27.30
2024-01-06T19:51:05.923Z,27.20
2024-01-06T19:53:32.562Z,29.07
2024-01-06T19:56:00.765Z,27.97
2024-01-06T19:58:27.693Z,28.97
2024-01-06T20:00:54.427Z,25.20
2024-01-06T20:03:21.069Z,28.07
2024-01-06T20:05:47.698Z,27.63
2024-01-06T20:08:14.320Z,28.57
2024-01-06T20:10:41.194Z,27.40
2024-01-06T20:13:08.466Z,30.60
2024-01-06T20:15:35.270Z,27.57
2024-01-06T20:18:01.883Z,30.93
2024-01-06T20:20:29.058Z,30.57
2024-01-06T20:22:55.672Z,31.93
2024-01-06T20:25:22.363Z,34.40
2024-01-06T20:27:49.417Z,33.10
2024-01-06T20:30:17.787Z,32.70
2024-01-06T20:32:44.925Z,32.80
2024-01-06T20:35:11.862Z,33.87
2024-01-06T20:37:38.546Z,29.60
2024-01-06T20:40:05.459Z,31.97
2024-01-06T20:42:32.476Z,33.63
2024-01-06T20:44:59.119Z,32.13
2024-01-06T20:47:26.949Z,29.57
2024-01-06T20:49:53.578Z,31.77
2024-01-06T20:52:20.116Z,33.47
2024-01-06T20:54:46.708Z,28.20
2024-01-06T20:57:13.337Z,30.27
2024-01-06T20:59:41.139Z,30.53
2024-01-06T21:02:07.767Z,34.80
2024-01-06T21:04:34.380Z,30.20
2024-01-06T21:07:01.023Z,26.73
2024-01-06T21:09:27.746Z,43.63
2024-01-06T21:11:55.579Z,30.13
2024-01-06T21:14:22.446Z,24.90
2024-01-06T21:16:51.543Z,21.60
2024-01-06T21:19:19.447Z,23.50
2024-01-06T21:21:46.204Z,22.50
2024-01-06T21:24:12.853Z,28.17
2024-01-06T21:26:39.521Z,22.80
2024-01-06T21:29:06.312Z,38.63
2024-01-06T21:31:33.607Z,36.90
2024-01-06T21:34:00.397Z,30.70
2024-01-06T21:36:27.242Z,25.43
2024-01-06T21:38:53.892Z,21.77
2024-01-06T21:41:21.836Z,17.97
2024-01-06T21:43:48.581Z,21.27
2024-01-06T21:46:15.204Z,18.93
2024-01-06T21:48:41.965Z,16.27
2024-01-06T21:51:09.484Z,15.77
2024-01-06T21:53:36.673Z,16.43
2024-01-06T21:56:04.496Z,17.67
2024-01-06T21:58:31.221Z,25.43
2024-01-06T22:00:59.127Z,19.73
2024-01-06T22:03:25.933Z,24.13
2024-01-06T22:05:52.697Z,19.90
2024-01-06T22:08:19.589Z,18.40
2024-01-06T22:10:46.217Z,22.80
2024-01-06T22:13:12.887Z,22.70
2024-01-06T22:15:39.545Z,19.47
2024-01-06T22:18:06.893Z,21.07
2024-01-06T22:20:33.536Z,23.60
2024-01-06T22:23:00.852Z,18.40
2024-01-06T22:25:27.540Z,20.07
2024-01-06T22:27:54.318Z,23.17
2024-01-06T22:30:21.187Z,19.07
2024-01-06T22:32:50.688Z,24.13
2024-01-06T22:35:18.109Z,19.30
2024-01-06T22:37:46.492Z,19.60
2024-01-06T22:40:13.234Z,21.57
2024-01-06T22:42:39.830Z,18.40
2024-01-06T22:45:06.625Z,21.23
2024-01-06T22:47:33.297Z,19.30
2024-01-06T22:49:59.991Z,21.80
2024-01-06T22:52:26.553Z,19.10
2024-01-06T22:54:53.141Z,18.20
2024-01-06T22:57:19.737Z,23.40
2024-01-06T22:59:46.436Z,19.03
2024-01-06T23:02:13.037Z,19.77
2024-01-06T23:04:40.102Z,16.47
2024-01-06T23:07:06.821Z,20.23
2024-01-06T23:09:33.463Z,19.50
2024-01-06T23:12:00.154Z,17.37
2024-01-06T23:14:26.748Z,22.00
2024-01-06T23:16:53.436Z,19.77
2024-01-06T23:19:20.236Z,22.57
2024-01-06T23:21:46.909Z,20.60
2024-01-06T23:24:13.791Z,20.10
2024-01-06T23:26:40.477Z,19.13
2024-01-06T23:29:07.175Z,23.43
2024-01-06T23:31:34.136Z,17.03
2024-01-06T23:34:00.947Z,25.87
2024-01-06T23:36:27.804Z,35.77
2024-01-06T23:38:54.465Z,17.13
2024-01-06T23:41:21.153Z,19.77
2024-01-06T23:43:47.749Z,15.83
2024-01-06T23:46:14.419Z,18.13
2024-01-06T23:48:41.057Z,17.00
2024-01-06T23:51:07.682Z,16.30
2024-01-06T23:53:34.337Z,19.47
2024-01-06T23:56:00.937Z,27.77
2024-01-06T23:58:27.553Z,18.23
